Time;durP1;ratioP1;P1;durP2;ratioP2;P2;SDS_P1;SDS_P2;PMS_P1;PMS_P2;Temp;Humidity;BMP_temperature;BMP_pressure;BME280_temperature;BME280_humidity;BME280_pressure;Samples;Min_cycle;Max_cycle;Signal;HPM_P1;HPM_P2
2022/01/11 00:01:27;;;;;;;;;;;23.40;48.50;;;;;;1576148;74;1925;-69
2022/01/11 00:03:29;;;;;;;;;;;23.40;48.50;;;;;;1553616;75;719;-69
2022/01/11 00:05:36;;;;;;;;;;;23.50;48.60;;;;;;1545709;76;722;-69
2022/01/11 00:07:36;;;;;;;;;;;23.40;48.60;;;;;;1549452;74;1652;-68
2022/01/11 00:09:42;;;;;;;;;;;23.40;48.50;;;;;;1577271;75;766;-67
2022/01/11 00:11:44;;;;;;;;;;;23.40;48.50;;;;;;1568073;74;1950;-68
2022/01/11 00:13:46;;;;;;;;;;;23.30;48.50;;;;;;1544183;76;743;-67
2022/01/11 00:15:48;;;;;;;;;;;23.30;48.50;;;;;;1542258;76;758;-68
2022/01/11 00:17:50;;;;;;;;;;;23.30;48.50;;;;;;1541192;76;1147;-68
2022/01/11 00:19:52;;;;;;;;;;;23.40;48.50;;;;;;1570154;74;735;-68
2022/01/11 00:21:54;;;;;;;;;;;23.30;48.40;;;;;;1575754;75;1930;-67
2022/01/11 00:26:15;;;;;;;;;;;23.40;48.40;;;;;;1550314;74;1653;-69
2022/01/11 00:28:18;;;;;;;;;;;23.30;48.40;;;;;;1571092;75;815;-71
2022/01/11 00:30:20;;;;;;;;;;;23.30;48.40;;;;;;1547751;76;770;-69
2022/01/11 00:32:35;;;;;;;;;;;23.40;48.40;;;;;;1544364;76;737;-69
2022/01/11 00:34:28;;;;;;;;;;;23.30;48.40;;;;;;1543095;77;1614;-72
2022/01/11 00:36:40;;;;;;;;;;;23.30;48.40;;;;;;1566501;74;1632;-69
2022/01/11 00:38:34;;;;;;;;;;;23.30;48.40;;;;;;1563784;75;1680;-69
2022/01/11 00:40:36;;;;;;;;;;;23.30;48.40;;;;;;1565618;75;702;-69
2022/01/11 00:42:38;;;;;;;;;;;23.30;48.40;;;;;;1566346;75;1939;-70
2022/01/11 00:44:40;;;;;;;;;;;23.40;48.40;;;;;;1566456;75;777;-69
2022/01/11 00:46:44;;;;;;;;;;;23.30;48.40;;;;;;1569056;74;1130;-70
2022/01/11 00:48:45;;;;;;;;;;;23.40;48.40;;;;;;1566075;75;1641;-69
2022/01/11 00:50:48;;;;;;;;;;;23.40;48.40;;;;;;1565014;76;727;-69
2022/01/11 00:52:50;;;;;;;;;;;23.40;48.40;;;;;;1570544;75;689;-68
2022/01/11 00:54:51;;;;;;;;;;;23.40;48.50;;;;;;1569529;75;752;-68
2022/01/11 00:56:53;;;;;;;;;;;23.30;48.40;;;;;;1575857;74;1138;-68
2022/01/11 00:58:55;;;;;;;;;;;23.40;48.40;;;;;;1565588;75;727;-69
2022/01/11 01:00:57;;;;;;;;;;;23.40;48.40;;;;;;1562760;76;744;-68
2022/01/11 01:02:59;;;;;;;;;;;23.40;48.40;;;;;;1565157;76;1966;-68
2022/01/11 01:05:01;;;;;;;;;;;23.30;48.40;;;;;;1570251;75;778;-68
2022/01/11 01:07:03;;;;;;;;;;;23.40;48.40;;;;;;1569838;74;1148;-70
2022/01/11 01:09:06;;;;;;;;;;;23.40;48.40;;;;;;1566228;75;751;-68
2022/01/11 01:11:08;;;;;;;;;;;23.30;48.40;;;;;;1569193;75;751;-68
2022/01/11 01:13:11;;;;;;;;;;;23.40;48.40;;;;;;1566191;75;790;-67
2022/01/11 01:15:12;;;;;;;;;;;23.30;48.40;;;;;;1570288;75;801;-69
2022/01/11 01:17:14;;;;;;;;;;;23.30;48.40;;;;;;1569822;74;1140;-71
2022/01/11 01:19:16;;;;;;;;;;;23.40;48.40;;;;;;1562731;76;742;-69
2022/01/11 01:21:18;;;;;;;;;;;23.30;48.40;;;;;;1566220;76;759;-69
2022/01/11 01:23:20;;;;;;;;;;;23.40;48.40;;;;;;1566291;75;1955;-68
2022/01/11 01:25:23;;;;;;;;;;;23.30;48.40;;;;;;1564936;76;805;-68
2022/01/11 01:27:25;;;;;;;;;;;23.30;48.40;;;;;;1570128;73;1206;-70
2022/01/11 01:29:27;;;;;;;;;;;23.40;48.40;;;;;;1566478;76;777;-68
2022/01/11 01:31:29;;;;;;;;;;;23.40;48.40;;;;;;1566213;76;725;-65
2022/01/11 01:33:31;;;;;;;;;;;23.30;48.40;;;;;;1569893;75;932;-66
2022/01/11 01:35:39;;;;;;;;;;;23.30;48.40;;;;;;1569548;75;771;-66
2022/01/11 01:37:36;;;;;;;;;;;23.30;48.40;;;;;;1565333;74;1664;-66
2022/01/11 01:39:38;;;;;;;;;;;23.30;48.40;;;;;;1562662;76;791;-66
2022/01/11 01:41:44;;;;;;;;;;;23.30;48.40;;;;;;1563057;75;624;-66
2022/01/11 01:43:47;;;;;;;;;;;23.30;48.30;;;;;;1568266;75;1916;-67
2022/01/11 01:45:49;;;;;;;;;;;23.30;48.30;;;;;;1569674;75;820;-68
2022/01/11 01:47:57;;;;;;;;;;;23.40;48.30;;;;;;1567064;74;1115;-65
2022/01/11 01:49:55;;;;;;;;;;;23.30;48.40;;;;;;1568848;75;1562;-72
2022/01/11 01:51:57;;;;;;;;;;;23.30;48.40;;;;;;1569711;75;659;-70
2022/01/11 01:53:59;;;;;;;;;;;23.30;48.40;;;;;;1570099;75;818;-68
2022/01/11 01:56:01;;;;;;;;;;;23.30;48.40;;;;;;1569629;75;722;-68
2022/01/11 01:58:03;;;;;;;;;;;23.30;48.40;;;;;;1570504;74;1180;-70
2022/01/11 02:00:11;;;;;;;;;;;23.40;48.40;;;;;;1569873;75;737;-68
2022/01/11 02:02:11;;;;;;;;;;;23.30;48.30;;;;;;1564703;75;1918;-70
2022/01/11 02:04:13;;;;;;;;;;;23.40;48.30;;;;;;1563548;75;847;-72
2022/01/11 02:06:16;;;;;;;;;;;23.40;48.30;;;;;;1567279;74;1131;-68
2022/01/11 02:08:18;;;;;;;;;;;23.40;48.30;;;;;;1556292;72;3031;-68
2022/01/11 02:10:20;;;;;;;;;;;23.30;48.30;;;;;;1578215;73;767;-68
2022/01/11 02:12:22;;;;;;;;;;;23.30;48.30;;;;;;1572471;74;793;-68
2022/01/11 02:14:24;;;;;;;;;;;23.40;48.30;;;;;;1573425;74;775;-68
2022/01/11 02:16:25;;;;;;;;;;;23.30;48.30;;;;;;1572680;74;800;-67
2022/01/11 02:18:27;;;;;;;;;;;23.40;48.40;;;;;;1556963;75;1203;-66
2022/01/11 02:20:29;;;;;;;;;;;23.30;48.40;;;;;;1561093;76;696;-68
2022/01/11 02:22:31;;;;;;;;;;;23.30;48.30;;;;;;1562344;74;1947;-68
2022/01/11 02:24:33;;;;;;;;;;;23.30;48.30;;;;;;1561277;76;723;-68
2022/01/11 02:26:35;;;;;;;;;;;23.30;48.20;;;;;;1561481;76;909;-69
2022/01/11 02:28:37;;;;;;;;;;;23.30;48.30;;;;;;1560655;76;1110;-69
2022/01/11 02:30:39;;;;;;;;;;;23.30;48.30;;;;;;1561095;76;715;-69
2022/01/11 02:32:48;;;;;;;;;;;23.40;48.30;;;;;;1551851;76;621;-69
2022/01/11 02:34:50;;;;;;;;;;;23.30;48.30;;;;;;1556658;76;726;-69
2022/01/11 02:36:52;;;;;;;;;;;23.30;48.30;;;;;;1559718;76;679;-69
2022/01/11 02:38:54;;;;;;;;;;;23.30;48.30;;;;;;1560615;76;1126;-69
2022/01/11 02:40:57;;;;;;;;;;;23.30;48.40;;;;;;1558808;74;786;-68
2022/01/11 02:42:59;;;;;;;;;;;23.30;48.30;;;;;;1557899;76;1911;-66
2022/01/11 02:45:01;;;;;;;;;;;23.30;48.30;;;;;;1550528;76;699;-69
2022/01/11 02:47:03;;;;;;;;;;;23.30;48.40;;;;;;1560161;76;708;-69
2022/01/11 02:49:04;;;;;;;;;;;23.30;48.30;;;;;;1559865;76;1209;-69
2022/01/11 02:51:06;;;;;;;;;;;23.30;48.40;;;;;;1560564;75;671;-69
2022/01/11 02:53:08;;;;;;;;;;;23.30;48.30;;;;;;1557188;75;727;-70
2022/01/11 02:55:11;;;;;;;;;;;23.30;48.30;;;;;;1559472;75;661;-70
2022/01/11 02:57:13;;;;;;;;;;;23.30;48.40;;;;;;1560661;76;739;-69
2022/01/11 02:59:15;;;;;;;;;;;23.30;48.30;;;;;;1560291;76;1126;-68
2022/01/11 03:01:17;;;;;;;;;;;23.30;48.30;;;;;;1559876;76;805;-68
2022/01/11 03:03:25;;;;;;;;;;;23.20;48.30;;;;;;1559825;76;1928;-68
2022/01/11 03:05:23;;;;;;;;;;;23.30;48.40;;;;;;1559105;75;1541;-69
2022/01/11 03:07:25;;;;;;;;;;;23.20;48.40;;;;;;1561637;75;786;-69
2022/01/11 03:09:33;;;;;;;;;;;23.30;48.40;;;;;;1559902;75;1223;-69
2022/01/11 03:11:33;;;;;;;;;;;23.30;48.40;;;;;;1565764;74;1635;-69
2022/01/11 03:13:35;;;;;;;;;;;23.30;48.40;;;;;;1562452;74;760;-68
2022/01/11 03:15:38;;;;;;;;;;;23.30;48.40;;;;;;1559585;76;762;-68
2022/01/11 03:17:40;;;;;;;;;;;23.30;48.40;;;;;;1562622;76;757;-67
2022/01/11 03:19:42;;;;;;;;;;;23.30;48.40;;;;;;1558929;76;1117;-69
2022/01/11 03:21:43;;;;;;;;;;;23.30;48.40;;;;;;1560160;76;778;-68
2022/01/11 03:23:45;;;;;;;;;;;23.30;48.40;;;;;;1561293;76;1958;-69
2022/01/11 03:25:48;;;;;;;;;;;23.40;48.40;;;;;;1561022;75;703;-69
2022/01/11 03:27:49;;;;;;;;;;;23.30;48.40;;;;;;1553280;75;718;-69
2022/01/11 03:29:52;;;;;;;;;;;23.30;48.40;;;;;;1560067;76;740;-69
2022/01/11 03:31:54;;;;;;;;;;;23.30;48.40;;;;;;1560135;76;777;-69
2022/01/11 03:33:55;;;;;;;;;;;23.30;48.40;;;;;;1561450;76;722;-68
2022/01/11 03:35:57;;;;;;;;;;;23.30;48.40;;;;;;1561315;76;781;-67
2022/01/11 03:37:59;;;;;;;;;;;23.30;48.40;;;;;;1559991;76;1123;-69
2022/01/11 03:40:01;;;;;;;;;;;23.30;48.40;;;;;;1560847;75;719;-69
2022/01/11 03:42:03;;;;;;;;;;;23.30;48.30;;;;;;1561164;76;718;-70
2022/01/11 03:44:06;;;;;;;;;;;23.30;48.30;;;;;;1560575;76;1943;-69
2022/01/11 03:46:08;;;;;;;;;;;23.40;48.30;;;;;;1559997;76;727;-70
2022/01/11 03:48:13;;;;;;;;;;;23.40;48.30;;;;;;1559126;75;1126;-70
2022/01/11 03:50:13;;;;;;;;;;;23.30;48.30;;;;;;1554038;76;1597;-66
2022/01/11 03:52:15;;;;;;;;;;;23.30;48.30;;;;;;1560327;76;794;-69
2022/01/11 03:54:26;;;;;;;;;;;23.40;48.30;;;;;;1558390;76;732;-69
2022/01/11 03:56:26;;;;;;;;;;;23.30;48.30;;;;;;1558650;76;1538;-69
2022/01/11 03:58:29;;;;;;;;;;;23.40;48.30;;;;;;1559295;75;2076;-69
2022/01/11 04:00:31;;;;;;;;;;;23.30;48.30;;;;;;1560134;76;793;-69
2022/01/11 04:02:32;;;;;;;;;;;23.40;48.30;;;;;;1558986;75;686;-69
2022/01/11 04:04:34;;;;;;;;;;;23.40;48.30;;;;;;1559929;76;1935;-70
2022/01/11 04:06:36;;;;;;;;;;;23.30;48.30;;;;;;1557758;76;778;-69
2022/01/11 04:08:38;;;;;;;;;;;23.40;48.30;;;;;;1561251;75;1129;-69
2022/01/11 04:10:40;;;;;;;;;;;23.40;48.40;;;;;;1548885;76;779;-67
2022/01/11 04:12:42;;;;;;;;;;;23.40;48.40;;;;;;1559875;76;790;-69
2022/01/11 04:14:44;;;;;;;;;;;23.30;48.40;;;;;;1564645;74;903;-70
2022/01/11 04:16:46;;;;;;;;;;;23.30;48.30;;;;;;1565175;75;687;-69
2022/01/11 04:18:48;;;;;;;;;;;23.40;48.30;;;;;;1560541;75;1165;-69
2022/01/11 04:20:50;;;;;;;;;;;23.50;48.40;;;;;;1559875;75;775;-69
2022/01/11 04:22:52;;;;;;;;;;;23.40;48.20;;;;;;1559717;76;770;-69
2022/01/11 04:24:54;;;;;;;;;;;23.50;48.20;;;;;;1559684;75;1954;-70
2022/01/11 04:26:55;;;;;;;;;;;23.50;48.30;;;;;;1558992;75;727;-69
2022/01/11 04:28:57;;;;;;;;;;;23.40;48.10;;;;;;1560630;75;1125;-69
2022/01/11 04:31:00;;;;;;;;;;;23.50;48.30;;;;;;1560359;76;1055;-68
2022/01/11 04:33:02;;;;;;;;;;;23.40;48.10;;;;;;1556064;76;779;-69
2022/01/11 04:35:04;;;;;;;;;;;23.50;48.30;;;;;;1560297;75;742;-69
2022/01/11 04:37:06;;;;;;;;;;;23.40;48.10;;;;;;1558370;75;785;-68
2022/01/11 04:39:08;;;;;;;;;;;23.40;48.20;;;;;;1557215;75;1128;-69
2022/01/11 04:41:10;;;;;;;;;;;23.40;48.20;;;;;;1551387;75;794;-64
2022/01/11 04:43:12;;;;;;;;;;;23.40;48.20;;;;;;1559286;75;1927;-64
2022/01/11 04:45:15;;;;;;;;;;;23.40;48.20;;;;;;1560106;76;720;-64
2022/01/11 04:47:17;;;;;;;;;;;23.40;48.20;;;;;;1559398;75;707;-64
2022/01/11 04:49:18;;;;;;;;;;;23.40;48.20;;;;;;1559544;76;1143;-64
2022/01/11 04:51:21;;;;;;;;;;;23.40;48.20;;;;;;1560053;75;723;-64
2022/01/11 04:53:22;;;;;;;;;;;23.40;48.20;;;;;;1556489;75;759;-65
2022/01/11 04:55:24;;;;;;;;;;;23.40;48.20;;;;;;1561119;76;700;-65
2022/01/11 04:57:26;;;;;;;;;;;23.40;48.10;;;;;;1560196;76;711;-65
2022/01/11 04:59:28;;;;;;;;;;;23.40;48.10;;;;;;1550215;76;1169;-66
2022/01/11 05:01:30;;;;;;;;;;;23.40;48.10;;;;;;1559994;75;847;-66
2022/01/11 05:03:32;;;;;;;;;;;23.40;48.10;;;;;;1560147;76;1947;-65
2022/01/11 05:05:34;;;;;;;;;;;23.40;48.10;;;;;;1560270;76;714;-67
2022/01/11 05:07:36;;;;;;;;;;;23.40;48.00;;;;;;1555153;76;698;-64
2022/01/11 05:09:38;;;;;;;;;;;23.40;48.00;;;;;;1561187;76;1075;-65
2022/01/11 05:11:40;;;;;;;;;;;23.40;48.00;;;;;;1560047;76;1081;-63
2022/01/11 05:13:42;;;;;;;;;;;23.40;48.00;;;;;;1560871;76;788;-64
2022/01/11 05:15:43;;;;;;;;;;;23.30;48.10;;;;;;1560634;75;773;-65
2022/01/11 05:17:45;;;;;;;;;;;23.30;48.00;;;;;;1550742;75;703;-65
2022/01/11 05:19:47;;;;;;;;;;;23.40;48.00;;;;;;1548311;75;1021;-65
2022/01/11 05:21:49;;;;;;;;;;;23.40;47.90;;;;;;1552377;75;753;-68
2022/01/11 05:23:51;;;;;;;;;;;23.40;47.90;;;;;;1556157;75;1923;-65
2022/01/11 05:25:53;;;;;;;;;;;23.30;47.80;;;;;;1559151;75;782;-65
2022/01/11 05:27:55;;;;;;;;;;;23.40;47.90;;;;;;1556846;75;1220;-65
2022/01/11 05:29:57;;;;;;;;;;;23.40;47.90;;;;;;1559624;75;630;-64
2022/01/11 05:31:58;;;;;;;;;;;23.30;47.90;;;;;;1558028;76;745;-64
2022/01/11 05:34:00;;;;;;;;;;;23.30;47.90;;;;;;1555750;76;639;-65
2022/01/11 05:36:02;;;;;;;;;;;23.30;47.90;;;;;;1547369;75;767;-65
2022/01/11 05:38:04;;;;;;;;;;;23.30;47.90;;;;;;1558414;75;1146;-65
2022/01/11 05:40:07;;;;;;;;;;;23.30;47.80;;;;;;1554680;75;730;-63
2022/01/11 05:42:09;;;;;;;;;;;23.30;47.90;;;;;;1560145;75;739;-64
2022/01/11 05:44:11;;;;;;;;;;;23.30;47.90;;;;;;1561060;76;1934;-65
2022/01/11 05:46:13;;;;;;;;;;;23.30;47.80;;;;;;1555880;76;819;-63
2022/01/11 05:48:15;;;;;;;;;;;23.30;47.80;;;;;;1554460;76;1121;-65
2022/01/11 05:50:17;;;;;;;;;;;23.30;47.90;;;;;;1559925;76;811;-63
2022/01/11 05:52:19;;;;;;;;;;;23.30;47.80;;;;;;1561094;76;727;-64
2022/01/11 05:54:21;;;;;;;;;;;23.30;47.90;;;;;;1557245;76;711;-65
2022/01/11 05:56:23;;;;;;;;;;;23.30;47.80;;;;;;1556841;76;803;-63
2022/01/11 05:58:25;;;;;;;;;;;23.30;47.90;;;;;;1556054;75;1174;-62
2022/01/11 06:00:27;;;;;;;;;;;23.30;47.90;;;;;;1543695;75;788;-63
2022/01/11 06:02:29;;;;;;;;;;;23.30;48.00;;;;;;1558980;76;719;-63
2022/01/11 06:04:31;;;;;;;;;;;23.40;48.10;;;;;;1559386;76;1948;-64
2022/01/11 06:06:33;;;;;;;;;;;23.30;48.10;;;;;;1560216;76;794;-68
2022/01/11 06:08:35;;;;;;;;;;;23.40;48.10;;;;;;1559860;76;1137;-67
2022/01/11 06:10:37;;;;;;;;;;;23.40;48.00;;;;;;1556394;75;786;-67
2022/01/11 06:12:39;;;;;;;;;;;23.40;48.10;;;;;;1561291;75;754;-68
2022/01/11 06:14:40;;;;;;;;;;;23.30;48.10;;;;;;1557379;76;973;-68
2022/01/11 06:16:42;;;;;;;;;;;23.30;48.10;;;;;;1557331;76;782;-66
2022/01/11 06:18:45;;;;;;;;;;;23.30;48.20;;;;;;1559206;76;1153;-67
2022/01/11 06:20:47;;;;;;;;;;;23.40;48.20;;;;;;1560251;75;801;-69
2022/01/11 06:22:49;;;;;;;;;;;23.30;48.20;;;;;;1554282;75;794;-69
2022/01/11 06:24:51;;;;;;;;;;;23.30;48.20;;;;;;1560399;76;1940;-68
2022/01/11 06:26:53;;;;;;;;;;;23.30;48.30;;;;;;1560247;76;687;-68
2022/01/11 06:28:56;;;;;;;;;;;23.30;48.30;;;;;;1560057;75;1130;-70
2022/01/11 06:30:58;;;;;;;;;;;23.30;48.20;;;;;;1523058;76;796;-66
2022/01/11 06:33:00;;;;;;;;;;;23.30;48.30;;;;;;1558240;75;712;-69
2022/01/11 06:35:02;;;;;;;;;;;23.30;48.20;;;;;;1560295;76;723;-69
2022/01/11 06:37:03;;;;;;;;;;;23.30;48.10;;;;;;1560880;75;750;-69
2022/01/11 06:39:05;;;;;;;;;;;23.20;48.10;;;;;;1559357;75;1141;-70
2022/01/11 06:41:07;;;;;;;;;;;23.20;48.00;;;;;;1559367;75;670;-69
2022/01/11 06:43:09;;;;;;;;;;;23.20;47.90;;;;;;1559939;76;792;-72
2022/01/11 06:45:11;;;;;;;;;;;23.20;47.80;;;;;;1560313;76;1936;-71
2022/01/11 06:47:13;;;;;;;;;;;23.30;47.80;;;;;;1560166;75;677;-70
2022/01/11 06:49:15;;;;;;;;;;;23.20;47.60;;;;;;1559877;75;1137;-71
2022/01/11 06:51:17;;;;;;;;;;;23.20;47.60;;;;;;1560849;75;713;-75
2022/01/11 06:53:19;;;;;;;;;;;23.20;47.60;;;;;;1560730;75;762;-70
2022/01/11 06:55:21;;;;;;;;;;;23.10;47.60;;;;;;1560535;76;704;-69
2022/01/11 06:57:24;;;;;;;;;;;23.10;47.60;;;;;;1556145;75;736;-68
2022/01/11 06:59:26;;;;;;;;;;;23.20;47.60;;;;;;1558034;76;1128;-69
2022/01/11 07:01:29;;;;;;;;;;;23.20;47.60;;;;;;1560528;76;645;-69
2022/01/11 07:03:31;;;;;;;;;;;23.10;47.60;;;;;;1559796;76;820;-69
2022/01/11 07:05:33;;;;;;;;;;;23.20;47.60;;;;;;1559726;76;1918;-69
2022/01/11 07:07:35;;;;;;;;;;;23.20;47.60;;;;;;1561154;75;699;-68
2022/01/11 07:09:37;;;;;;;;;;;23.10;47.60;;;;;;1561194;75;1081;-68
2022/01/11 07:11:38;;;;;;;;;;;23.10;47.60;;;;;;1561217;74;805;-68
2022/01/11 07:13:40;;;;;;;;;;;23.10;47.70;;;;;;1553397;74;582;-67
2022/01/11 07:15:42;;;;;;;;;;;23.10;47.80;;;;;;1559705;76;803;-67
2022/01/11 07:17:44;;;;;;;;;;;23.10;47.80;;;;;;1560771;75;735;-66
2022/01/11 07:19:46;;;;;;;;;;;23.20;47.80;;;;;;1560532;76;1075;-70
2022/01/11 07:21:48;;;;;;;;;;;23.10;47.70;;;;;;1556452;75;703;-70
2022/01/11 07:23:50;;;;;;;;;;;23.10;47.40;;;;;;1560243;75;781;-68
2022/01/11 07:25:52;;;;;;;;;;;23.10;46.70;;;;;;1555798;76;1937;-69
2022/01/11 07:27:53;;;;;;;;;;;23.00;44.90;;;;;;1560358;76;1130;-69
2022/01/11 07:29:55;;;;;;;;;;;23.10;44.70;;;;;;1560559;76;702;-74
2022/01/11 07:31:59;;;;;;;;;;;23.10;44.50;;;;;;1560198;76;761;-70
2022/01/11 07:34:01;;;;;;;;;;;23.00;44.20;;;;;;1556262;75;1088;-68
2022/01/11 07:36:03;;;;;;;;;;;23.00;44.00;;;;;;1559446;76;719;-68
2022/01/11 07:38:05;;;;;;;;;;;23.00;44.00;;;;;;1560327;76;1133;-68
2022/01/11 07:40:07;;;;;;;;;;;22.90;44.00;;;;;;1558944;76;797;-70
2022/01/11 07:42:09;;;;;;;;;;;22.90;43.30;;;;;;1552001;76;728;-70
2022/01/11 07:44:11;;;;;;;;;;;22.90;43.60;;;;;;1557527;76;1934;-73
2022/01/11 07:46:13;;;;;;;;;;;22.80;43.40;;;;;;1551844;76;730;-68
2022/01/11 07:48:15;;;;;;;;;;;22.90;43.70;;;;;;1550823;76;1137;-70
2022/01/11 07:50:16;;;;;;;;;;;22.90;43.70;;;;;;1552271;76;722;-71
2022/01/11 07:52:18;;;;;;;;;;;22.70;43.60;;;;;;1547649;76;737;-68
2022/01/11 07:54:20;;;;;;;;;;;22.80;43.60;;;;;;1552003;76;744;-68
2022/01/11 07:56:22;;;;;;;;;;;22.80;43.60;;;;;;1549121;75;725;-69
2022/01/11 07:58:24;;;;;;;;;;;22.70;43.70;;;;;;1555617;75;1197;-69
2022/01/11 08:00:26;;;;;;;;;;;22.70;43.70;;;;;;1551497;75;752;-67
2022/01/11 08:02:28;;;;;;;;;;;22.70;43.90;;;;;;1557058;76;758;-67
2022/01/11 08:04:31;;;;;;;;;;;22.70;44.10;;;;;;1544895;76;1934;-64
2022/01/11 08:06:33;;;;;;;;;;;22.60;44.30;;;;;;1540775;76;737;-67
2022/01/11 08:08:35;;;;;;;;;;;22.50;44.90;;;;;;1543090;75;3093;-72
2022/01/11 08:10:36;;;;;;;;;;;22.50;45.30;;;;;;1594165;73;772;-71
2022/01/11 08:12:39;;;;;;;;;;;22.50;45.70;;;;;;1565500;75;913;-72
2022/01/11 08:14:41;;;;;;;;;;;22.40;45.90;;;;;;1569668;74;818;-73
2022/01/11 08:16:42;;;;;;;;;;;22.40;46.10;;;;;;1591469;73;808;-69
2022/01/11 08:18:44;;;;;;;;;;;22.30;46.30;;;;;;1594004;74;1228;-73
2022/01/11 08:20:47;;;;;;;;;;;22.40;46.50;;;;;;1598075;73;800;-71
2022/01/11 08:22:51;;;;;;;;;;;22.40;46.70;;;;;;1598906;74;988;-72
2022/01/11 08:24:53;;;;;;;;;;;22.40;46.70;;;;;;1605101;73;1905;-74
2022/01/11 08:26:54;;;;;;;;;;;22.40;46.90;;;;;;1585542;74;746;-71
2022/01/11 08:28:56;;;;;;;;;;;22.40;47.00;;;;;;1586078;73;1125;-72
2022/01/11 08:30:59;;;;;;;;;;;22.50;47.20;;;;;;1591903;74;738;-72
2022/01/11 08:33:01;;;;;;;;;;;22.40;47.10;;;;;;1599772;73;782;-71
2022/01/11 08:35:03;;;;;;;;;;;22.40;47.10;;;;;;1585356;74;738;-73
2022/01/11 08:37:05;;;;;;;;;;;22.40;47.20;;;;;;1586149;74;735;-72
2022/01/11 08:39:07;;;;;;;;;;;22.40;47.30;;;;;;1581449;74;1101;-73
2022/01/11 08:41:09;;;;;;;;;;;22.40;47.30;;;;;;1586511;73;733;-72
2022/01/11 08:43:11;;;;;;;;;;;22.40;47.30;;;;;;1593872;74;794;-71
2022/01/11 08:45:13;;;;;;;;;;;22.50;47.50;;;;;;1600449;74;1940;-70
2022/01/11 08:47:15;;;;;;;;;;;22.50;47.50;;;;;;1599100;74;727;-71
2022/01/11 08:49:17;;;;;;;;;;;22.50;47.60;;;;;;1593783;73;1154;-70
2022/01/11 08:51:19;;;;;;;;;;;22.50;47.60;;;;;;1570565;75;785;-72
2022/01/11 08:53:21;;;;;;;;;;;22.50;47.60;;;;;;1617318;72;680;-73
2022/01/11 08:55:23;;;;;;;;;;;22.50;47.60;;;;;;1606600;72;904;-73
2022/01/11 08:57:25;;;;;;;;;;;22.50;47.60;;;;;;1622136;72;669;-73
2022/01/11 08:59:27;;;;;;;;;;;22.50;47.80;;;;;;1561606;75;1206;-73
2022/01/11 09:01:31;;;;;;;;;;;22.50;47.80;;;;;;1618933;72;790;-74
2022/01/11 09:03:33;;;;;;;;;;;22.50;47.70;;;;;;1606451;72;823;-74
2022/01/11 09:05:35;;;;;;;;;;;22.50;47.80;;;;;;1624168;73;1926;-73
2022/01/11 09:07:37;;;;;;;;;;;22.50;47.80;;;;;;1624272;72;821;-73
2022/01/11 09:09:39;;;;;;;;;;;22.60;47.80;;;;;;1612036;73;1137;-71
2022/01/11 09:11:42;;;;;;;;;;;22.50;47.80;;;;;;1624682;73;833;-71
2022/01/11 09:13:44;;;;;;;;;;;22.50;47.80;;;;;;1624468;73;754;-73
2022/01/11 09:15:46;;;;;;;;;;;22.50;47.80;;;;;;1623083;73;798;-72
2022/01/11 09:17:47;;;;;;;;;;;22.50;47.80;;;;;;1612005;73;771;-72
2022/01/11 09:19:49;;;;;;;;;;;22.60;47.80;;;;;;1623193;72;1149;-72
2022/01/11 09:21:51;;;;;;;;;;;22.60;47.60;;;;;;1604838;73;779;-71
2022/01/11 09:23:53;;;;;;;;;;;22.60;47.60;;;;;;1624766;73;715;-72
2022/01/11 09:25:55;;;;;;;;;;;22.70;47.60;;;;;;1624292;73;1935;-71
2022/01/11 09:27:57;;;;;;;;;;;22.70;47.50;;;;;;1623110;73;836;-72
2022/01/11 09:29:59;;;;;;;;;;;22.70;47.30;;;;;;1624582;72;1109;-73
2022/01/11 09:32:01;;;;;;;;;;;22.80;47.20;;;;;;1624457;73;771;-71
2022/01/11 09:34:03;;;;;;;;;;;22.90;47.10;;;;;;1621816;73;733;-71
2022/01/11 09:36:04;;;;;;;;;;;22.90;47.10;;;;;;1624604;73;696;-71
2022/01/11 09:38:06;;;;;;;;;;;22.90;47.00;;;;;;1614865;72;741;-71
2022/01/11 09:40:09;;;;;;;;;;;22.80;46.90;;;;;;1605035;73;1107;-71
2022/01/11 09:42:11;;;;;;;;;;;22.80;46.90;;;;;;1617439;72;679;-73
2022/01/11 09:44:13;;;;;;;;;;;22.80;46.80;;;;;;1586160;73;1123;-72
2022/01/11 09:46:14;;;;;;;;;;;23.00;46.80;;;;;;1624960;72;1955;-72
2022/01/11 09:48:21;;;;;;;;;;;23.00;46.60;;;;;;1618173;72;1158;-72
2022/01/11 09:50:23;;;;;;;;;;;23.00;46.60;;;;;;1628424;72;1171;-71
2022/01/11 09:52:25;;;;;;;;;;;23.00;46.60;;;;;;1637086;72;732;-71
2022/01/11 09:54:27;;;;;;;;;;;22.90;46.70;;;;;;1620584;72;659;-72
2022/01/11 09:56:29;;;;;;;;;;;22.90;46.80;;;;;;1624763;72;770;-74
2022/01/11 09:58:32;;;;;;;;;;;23.10;46.60;;;;;;1622946;72;1194;-75
2022/01/11 10:00:34;;;;;;;;;;;23.20;46.30;;;;;;1624946;72;549;-75
2022/01/11 10:02:36;;;;;;;;;;;23.20;46.10;;;;;;1615793;72;758;-74
2022/01/11 10:04:38;;;;;;;;;;;23.20;46.00;;;;;;1624586;72;823;-75
2022/01/11 10:06:46;;;;;;;;;;;23.20;46.00;;;;;;1624576;72;1924;-72
2022/01/11 10:08:45;;;;;;;;;;;23.20;46.00;;;;;;1619020;72;1183;-75
2022/01/11 10:10:48;;;;;;;;;;;23.20;46.00;;;;;;1627970;72;798;-74
2022/01/11 10:12:50;;;;;;;;;;;23.20;46.20;;;;;;1621401;72;716;-74
2022/01/11 10:14:53;;;;;;;;;;;23.10;46.20;;;;;;1630795;72;712;-74
2022/01/11 10:17:05;;;;;;;;;;;23.10;46.20;;;;;;1615392;72;696;-74
2022/01/11 10:19:08;;;;;;;;;;;23.20;46.30;;;;;;1622758;72;1166;-74
2022/01/11 10:21:28;;;;;;;;;;;23.10;46.40;;;;;;1623772;72;1582;-74
2022/01/11 10:23:33;;;;;;;;;;;23.10;46.40;;;;;;1625324;72;709;-74
2022/01/11 10:25:45;;;;;;;;;;;23.10;46.50;;;;;;1624780;72;2095;-74
2022/01/11 10:28:00;;;;;;;;;;;23.10;46.50;;;;;;1622058;72;723;-74
2022/01/11 10:30:08;;;;;;;;;;;23.00;46.50;;;;;;1617418;72;1131;-73
2022/01/11 10:32:11;;;;;;;;;;;23.00;46.50;;;;;;1617840;72;752;-73
2022/01/11 10:34:13;;;;;;;;;;;23.00;46.60;;;;;;1623682;72;870;-72
2022/01/11 10:36:15;;;;;;;;;;;23.00;46.60;;;;;;1623882;72;743;-71
2022/01/11 10:38:30;;;;;;;;;;;23.00;46.80;;;;;;1625111;72;1180;-71
2022/01/11 10:40:36;;;;;;;;;;;23.10;47.00;;;;;;1623231;72;743;-71
2022/01/11 10:42:45;;;;;;;;;;;23.00;46.90;;;;;;1632661;72;741;-71
2022/01/11 10:44:59;;;;;;;;;;;23.00;46.90;;;;;;1612588;72;1026;-71
2022/01/11 10:47:02;;;;;;;;;;;23.00;46.90;;;;;;1622475;72;1917;-70
2022/01/11 10:49:04;;;;;;;;;;;23.00;47.00;;;;;;1624192;72;1165;-71
2022/01/11 10:51:06;;;;;;;;;;;23.00;47.00;;;;;;1621828;72;778;-72
2022/01/11 10:53:09;;;;;;;;;;;23.10;47.00;;;;;;1582222;73;1306;-72
2022/01/11 10:55:16;;;;;;;;;;;23.10;47.00;;;;;;1612118;72;1132;-71
2022/01/11 10:57:25;;;;;;;;;;;23.10;46.90;;;;;;1622395;72;773;-71
2022/01/11 10:59:27;;;;;;;;;;;23.10;46.90;;;;;;1623378;72;1792;-71
2022/01/11 11:01:32;;;;;;;;;;;23.10;46.80;;;;;;1634823;72;800;-72
2022/01/11 11:03:34;;;;;;;;;;;23.10;46.80;;;;;;1613939;72;798;-72
2022/01/11 11:05:38;;;;;;;;;;;23.20;46.80;;;;;;1621248;72;1912;-72
2022/01/11 11:07:40;;;;;;;;;;;23.20;46.70;;;;;;1616554;72;1081;-70
2022/01/11 11:09:46;;;;;;;;;;;23.20;46.70;;;;;;1625238;72;1161;-71
2022/01/11 11:11:50;;;;;;;;;;;23.20;46.60;;;;;;1623620;72;1853;-72
2022/01/11 11:13:52;;;;;;;;;;;23.20;46.70;;;;;;1619425;72;1823;-71
2022/01/11 11:15:55;;;;;;;;;;;23.20;46.60;;;;;;1623815;72;766;-72
2022/01/11 11:17:57;;;;;;;;;;;23.20;46.70;;;;;;1618435;72;722;-71
2022/01/11 11:20:03;;;;;;;;;;;23.20;46.70;;;;;;1623666;72;1143;-71
2022/01/11 11:22:02;;;;;;;;;;;23.20;46.70;;;;;;1623952;72;1559;-71
2022/01/11 11:24:12;;;;;;;;;;;23.20;46.80;;;;;;1623179;72;729;-71
2022/01/11 11:26:14;;;;;;;;;;;23.30;46.80;;;;;;1625104;72;1912;-71
2022/01/11 11:28:16;;;;;;;;;;;23.20;46.70;;;;;;1628510;72;1234;-73
2022/01/11 11:30:18;;;;;;;;;;;23.20;46.60;;;;;;1629233;72;693;-71
2022/01/11 11:32:20;;;;;;;;;;;23.20;46.50;;;;;;1631941;72;793;-71
2022/01/11 11:34:22;;;;;;;;;;;23.30;46.60;;;;;;1639877;72;689;-72
2022/01/11 11:36:25;;;;;;;;;;;23.30;46.60;;;;;;1623387;72;729;-73
2022/01/11 11:38:29;;;;;;;;;;;23.20;46.60;;;;;;1608915;72;1175;-72
2022/01/11 11:40:31;;;;;;;;;;;23.20;46.50;;;;;;1627215;72;848;-72
2022/01/11 11:42:33;;;;;;;;;;;23.20;46.60;;;;;;1625043;72;738;-72
2022/01/11 11:44:36;;;;;;;;;;;23.20;46.60;;;;;;1623756;73;719;-74
2022/01/11 11:46:42;;;;;;;;;;;23.30;46.60;;;;;;1623977;72;1907;-73
2022/01/11 11:48:44;;;;;;;;;;;23.30;46.50;;;;;;1615998;72;1177;-73
2022/01/11 11:50:51;;;;;;;;;;;23.20;46.50;;;;;;1592745;73;1274;-73
2022/01/11 11:52:53;;;;;;;;;;;23.20;46.80;;;;;;1620324;73;727;-72
2022/01/11 11:54:57;;;;;;;;;;;23.10;47.00;;;;;;1610153;73;766;-76
2022/01/11 11:57:02;;;;;;;;;;;23.00;47.10;;;;;;1624408;73;804;-75
2022/01/11 11:59:05;;;;;;;;;;;23.00;47.30;;;;;;1615766;73;1162;-72
2022/01/11 12:01:08;;;;;;;;;;;23.00;47.50;;;;;;1615611;73;728;-71
2022/01/11 12:03:23;;;;;;;;;;;22.90;47.70;;;;;;1615172;73;715;-71
2022/01/11 12:05:32;;;;;;;;;;;22.90;47.80;;;;;;1622748;73;1533;-72
2022/01/11 12:07:41;;;;;;;;;;;22.90;48.00;;;;;;1617309;72;1913;-72
2022/01/11 12:09:44;;;;;;;;;;;22.90;48.10;;;;;;1617980;73;1500;-73
2022/01/11 12:11:47;;;;;;;;;;;22.80;48.00;;;;;;1619756;73;1151;-71
2022/01/11 12:13:52;;;;;;;;;;;22.90;48.10;;;;;;1620573;73;766;-70